City Of Vicksburg — WDC2660 — position and weather

sailwx.info

Track history (hours):
 
Tides and Currents Weather Stations Pressure Air Temp Water Temp Dewpoint Dewpoint Depression Visibility Wind Speed Wind Dir Waves Ship Positions

City Of Vicksburg

Owner: Kirby Inland Marine LP, Houston, TX. More information available from US FCC via Universal Licensing System and Coast Guard Vessel Documentation Center.

Last reported at 2016-Apr-28 02:34 UTC. Time now 2016-Apr-29 14:04 UTC.
Position N 32°02' W 091°04'.

Length 50 m; draft 2.9 m.

Type: Ship (hazmat cat A). MMSI: 366996120.

Date/timePositionNaut miles runAvg speedWind from/ knotsBaromVisibWave heightAir tempDewpointWater temp
2016-Apr-28 02:34N 32°02' W 091°04'6 6.1
2016-Apr-28 01:33N 32°08' W 091°05'7 6.6
2016-Apr-28 00:33N 32°12' W 090°59'7 7.2
2016-Apr-27 23:33N 32°18' W 090°55'6 5.9
2016-Apr-27 22:33N 32°22' W 091°00'7 7.0
2016-Apr-27 21:33N 32°27' W 091°06'8 7.5
2016-Apr-27 20:33N 32°35' W 091°07'  
2016-Apr-19 14:19N 33°05' W 091°10'3 4.0
2016-Apr-19 13:34N 33°02' W 091°09'4 4.2
2016-Apr-19 12:30N 32°58' W 091°10'5 5.3
2016-Apr-19 11:33N 32°56' W 091°04'2 1.9
2016-Apr-19 10:34N 32°54' W 091°04'4 3.5
2016-Apr-19 09:33N 32°51' W 091°07'5 4.0
2016-Apr-19 08:25N 32°47' W 091°09'3 4.0
2016-Apr-19 07:33N 32°44' W 091°08'4 4.1
2016-Apr-19 06:32N 32°44' W 091°03'8 3.7
2016-Apr-19 04:26N 32°38' W 091°09'2 2.2
2016-Apr-19 03:33N 32°36' W 091°08'4 4.0
2016-Apr-19 02:34N 32°32' W 091°06'4 4.4
2016-Apr-19 01:34N 32°28' W 091°06'4 4.4
2016-Apr-19 00:33N 32°26' W 091°01'4 4.0
2016-Apr-18 23:33N 32°22' W 091°00'3 2.6
2016-Apr-18 22:33N 32°21' W 090°57'0 0.0
2016-Apr-18 21:34N 32°21' W 090°58'2 1.5
2016-Apr-18 20:33N 32°21' W 090°56'3 2.8
2016-Apr-18 19:33N 32°18' W 090°55'0 0.1
2016-Apr-18 18:34N 32°18' W 090°56'0 0.0
2016-Apr-18 17:33N 32°18' W 090°56'1 0.8
2016-Apr-18 16:33N 32°17' W 090°56'4 4.0
2016-Apr-18 15:33N 32°14' W 090°59'4 4.3
2016-Apr-18 14:33N 32°10' W 090°60'4 3.5
2016-Apr-18 13:33N 32°07' W 091°03'  
Track history (hours):
 
Tides and Currents Weather Stations Pressure Air Temp Water Temp Dewpoint Dewpoint Depression Visibility Wind Speed Wind Dir Waves Ship Positions

City Of Vicksburg

Owner: Kirby Inland Marine LP, Houston, TX. More information available from US FCC via Universal Licensing System and Coast Guard Vessel Documentation Center.

Last reported at 2016-Apr-28 02:34 UTC. Time now 2016-Apr-29 14:04 UTC.
Position N 32°02' W 091°04'.

Length 50 m; draft 2.9 m.

Type: Ship (hazmat cat A). MMSI: 366996120.

Date/timePositionNaut miles runAvg speedWind from/ knotsBaromVisibWave heightAir tempDewpointWater temp
2016-Apr-28 02:34N 32°02' W 091°04'6 6.1
2016-Apr-28 01:33N 32°08' W 091°05'7 6.6
2016-Apr-28 00:33N 32°12' W 090°59'7 7.2
2016-Apr-27 23:33N 32°18' W 090°55'6 5.9
2016-Apr-27 22:33N 32°22' W 091°00'7 7.0
2016-Apr-27 21:33N 32°27' W 091°06'8 7.5
2016-Apr-27 20:33N 32°35' W 091°07'  
2016-Apr-19 14:19N 33°05' W 091°10'3 4.0
2016-Apr-19 13:34N 33°02' W 091°09'4 4.2
2016-Apr-19 12:30N 32°58' W 091°10'5 5.3
2016-Apr-19 11:33N 32°56' W 091°04'2 1.9
2016-Apr-19 10:34N 32°54' W 091°04'4 3.5
2016-Apr-19 09:33N 32°51' W 091°07'5 4.0
2016-Apr-19 08:25N 32°47' W 091°09'3 4.0
2016-Apr-19 07:33N 32°44' W 091°08'4 4.1
2016-Apr-19 06:32N 32°44' W 091°03'8 3.7
2016-Apr-19 04:26N 32°38' W 091°09'2 2.2
2016-Apr-19 03:33N 32°36' W 091°08'4 4.0
2016-Apr-19 02:34N 32°32' W 091°06'4 4.4
2016-Apr-19 01:34N 32°28' W 091°06'4 4.4
2016-Apr-19 00:33N 32°26' W 091°01'4 4.0
2016-Apr-18 23:33N 32°22' W 091°00'3 2.6
2016-Apr-18 22:33N 32°21' W 090°57'0 0.0
2016-Apr-18 21:34N 32°21' W 090°58'2 1.5
2016-Apr-18 20:33N 32°21' W 090°56'3 2.8
2016-Apr-18 19:33N 32°18' W 090°55'0 0.1
2016-Apr-18 18:34N 32°18' W 090°56'0 0.0
2016-Apr-18 17:33N 32°18' W 090°56'1 0.8
2016-Apr-18 16:33N 32°17' W 090°56'4 4.0
2016-Apr-18 15:33N 32°14' W 090°59'4 4.3
2016-Apr-18 14:33N 32°10' W 090°60'4 3.5
2016-Apr-18 13:33N 32°07' W 091°03'  

Dump ship's entire track history